sensor_id;sensor_type;location;lat;lon;timestamp;temperature;humidity
22379;DHT22;11357;49.990;7.370;2022-09-01T00:02:15;19.70;59.60
22379;DHT22;11357;49.990;7.370;2022-09-01T00:04:43;19.70;59.70
22379;DHT22;11357;49.990;7.370;2022-09-01T00:07:10;19.70;59.70
22379;DHT22;11357;49.990;7.370;2022-09-01T00:09:37;19.70;59.70
22379;DHT22;11357;49.990;7.370;2022-09-01T00:12:05;19.60;59.70
22379;DHT22;11357;49.990;7.370;2022-09-01T00:14:34;19.60;59.80
22379;DHT22;11357;49.990;7.370;2022-09-01T00:17:04;19.50;59.90
22379;DHT22;11357;49.990;7.370;2022-09-01T00:19:30;19.60;60.00
22379;DHT22;11357;49.990;7.370;2022-09-01T00:21:58;19.60;60.10
22379;DHT22;11357;49.990;7.370;2022-09-01T00:24:24;19.50;60.20
22379;DHT22;11357;49.990;7.370;2022-09-01T00:26:51;19.50;60.30
22379;DHT22;11357;49.990;7.370;2022-09-01T00:29:17;19.50;60.30
22379;DHT22;11357;49.990;7.370;2022-09-01T00:31:43;19.50;60.40
22379;DHT22;11357;49.990;7.370;2022-09-01T00:34:09;19.50;60.50
22379;DHT22;11357;49.990;7.370;2022-09-01T00:36:34;19.40;60.50
22379;DHT22;11357;49.990;7.370;2022-09-01T00:39:01;19.40;60.60
22379;DHT22;11357;49.990;7.370;2022-09-01T00:41:29;19.40;60.60
22379;DHT22;11357;49.990;7.370;2022-09-01T00:44:00;19.40;60.70
22379;DHT22;11357;49.990;7.370;2022-09-01T00:46:30;19.40;60.70
22379;DHT22;11357;49.990;7.370;2022-09-01T00:49:25;19.30;60.80
22379;DHT22;11357;49.990;7.370;2022-09-01T00:51:51;19.30;60.90
22379;DHT22;11357;49.990;7.370;2022-09-01T00:54:22;19.30;61.10
22379;DHT22;11357;49.990;7.370;2022-09-01T00:56:49;19.30;61.20
22379;DHT22;11357;49.990;7.370;2022-09-01T00:59:16;19.30;61.10
22379;DHT22;11357;49.990;7.370;2022-09-01T01:01:43;19.20;61.30
22379;DHT22;11357;49.990;7.370;2022-09-01T01:04:09;19.20;61.30
22379;DHT22;11357;49.990;7.370;2022-09-01T01:06:46;19.20;61.40
22379;DHT22;11357;49.990;7.370;2022-09-01T01:09:19;19.20;61.50
22379;DHT22;11357;49.990;7.370;2022-09-01T01:11:45;19.10;61.60
22379;DHT22;11357;49.990;7.370;2022-09-01T01:14:14;19.10;61.60
22379;DHT22;11357;49.990;7.370;2022-09-01T01:16:48;19.10;61.70
22379;DHT22;11357;49.990;7.370;2022-09-01T01:22:28;19.10;62.10
22379;DHT22;11357;49.990;7.370;2022-09-01T01:25:15;19.00;62.00
22379;DHT22;11357;49.990;7.370;2022-09-01T01:27:43;19.00;62.20
22379;DHT22;11357;49.990;7.370;2022-09-01T01:30:11;19.00;62.30
22379;DHT22;11357;49.990;7.370;2022-09-01T01:32:38;18.90;62.40
22379;DHT22;11357;49.990;7.370;2022-09-01T01:35:11;18.90;62.50
22379;DHT22;11357;49.990;7.370;2022-09-01T01:37:40;18.90;62.50
22379;DHT22;11357;49.990;7.370;2022-09-01T01:40:08;18.90;62.60
22379;DHT22;11357;49.990;7.370;2022-09-01T01:42:44;18.90;62.60
22379;DHT22;11357;49.990;7.370;2022-09-01T01:45:12;18.90;63.10
22379;DHT22;11357;49.990;7.370;2022-09-01T01:47:39;18.90;62.80
22379;DHT22;11357;49.990;7.370;2022-09-01T01:50:06;18.90;62.80
22379;DHT22;11357;49.990;7.370;2022-09-01T01:52:34;18.90;63.00
22379;DHT22;11357;49.990;7.370;2022-09-01T01:55:01;18.90;63.00
22379;DHT22;11357;49.990;7.370;2022-09-01T01:57:27;18.80;62.90
22379;DHT22;11357;49.990;7.370;2022-09-01T01:59:56;18.90;63.10
22379;DHT22;11357;49.990;7.370;2022-09-01T02:02:22;18.80;63.00
22379;DHT22;11357;49.990;7.370;2022-09-01T02:04:48;18.80;63.10
22379;DHT22;11357;49.990;7.370;2022-09-01T02:07:15;18.80;63.10
22379;DHT22;11357;49.990;7.370;2022-09-01T02:09:41;18.80;63.10
22379;DHT22;11357;49.990;7.370;2022-09-01T02:12:10;18.80;63.20
22379;DHT22;11357;49.990;7.370;2022-09-01T02:14:36;18.80;63.30
22379;DHT22;11357;49.990;7.370;2022-09-01T02:17:03;18.70;63.20
22379;DHT22;11357;49.990;7.370;2022-09-01T02:19:30;18.70;63.20
22379;DHT22;11357;49.990;7.370;2022-09-01T02:21:56;18.70;63.30
22379;DHT22;11357;49.990;7.370;2022-09-01T02:24:24;18.70;63.50
22379;DHT22;11357;49.990;7.370;2022-09-01T02:26:51;18.60;63.50
22379;DHT22;11357;49.990;7.370;2022-09-01T02:29:21;18.60;63.60
22379;DHT22;11357;49.990;7.370;2022-09-01T02:31:49;18.60;63.70
22379;DHT22;11357;49.990;7.370;2022-09-01T02:34:17;18.60;63.80
22379;DHT22;11357;49.990;7.370;2022-09-01T02:36:46;18.60;63.90
22379;DHT22;11357;49.990;7.370;2022-09-01T02:39:17;18.50;64.10
22379;DHT22;11357;49.990;7.370;2022-09-01T02:41:44;18.50;64.20
22379;DHT22;11357;49.990;7.370;2022-09-01T02:44:10;18.50;64.10
22379;DHT22;11357;49.990;7.370;2022-09-01T02:46:43;18.50;64.20
22379;DHT22;11357;49.990;7.370;2022-09-01T02:49:11;18.40;64.40
22379;DHT22;11357;49.990;7.370;2022-09-01T02:51:44;18.40;64.50
22379;DHT22;11357;49.990;7.370;2022-09-01T02:54:11;18.40;64.60
22379;DHT22;11357;49.990;7.370;2022-09-01T02:56:41;18.30;64.70
22379;DHT22;11357;49.990;7.370;2022-09-01T02:59:06;18.30;64.90
22379;DHT22;11357;49.990;7.370;2022-09-01T03:01:36;18.30;65.10
22379;DHT22;11357;49.990;7.370;2022-09-01T03:04:05;18.30;65.20
22379;DHT22;11357;49.990;7.370;2022-09-01T03:06:36;18.30;65.30
22379;DHT22;11357;49.990;7.370;2022-09-01T03:09:05;18.30;65.40
22379;DHT22;11357;49.990;7.370;2022-09-01T03:11:32;18.30;65.50
22379;DHT22;11357;49.990;7.370;2022-09-01T03:14:00;18.30;65.60
22379;DHT22;11357;49.990;7.370;2022-09-01T03:16:26;18.20;65.60
22379;DHT22;11357;49.990;7.370;2022-09-01T03:18:54;18.20;65.60
22379;DHT22;11357;49.990;7.370;2022-09-01T03:21:20;18.20;65.80
22379;DHT22;11357;49.990;7.370;2022-09-01T03:23:50;18.20;65.70
22379;DHT22;11357;49.990;7.370;2022-09-01T03:26:19;18.20;65.70
22379;DHT22;11357;49.990;7.370;2022-09-01T03:28:47;18.20;65.70
22379;DHT22;11357;49.990;7.370;2022-09-01T03:31:13;18.20;65.70
22379;DHT22;11357;49.990;7.370;2022-09-01T03:33:40;18.20;65.80
22379;DHT22;11357;49.990;7.370;2022-09-01T03:36:06;18.20;65.90
22379;DHT22;11357;49.990;7.370;2022-09-01T03:38:33;18.20;65.90
22379;DHT22;11357;49.990;7.370;2022-09-01T03:41:02;18.20;65.90
22379;DHT22;11357;49.990;7.370;2022-09-01T03:43:31;18.10;65.90
22379;DHT22;11357;49.990;7.370;2022-09-01T03:45:57;18.10;65.90
22379;DHT22;11357;49.990;7.370;2022-09-01T03:48:27;18.10;65.90
22379;DHT22;11357;49.990;7.370;2022-09-01T03:50:55;18.10;66.70
22379;DHT22;11357;49.990;7.370;2022-09-01T03:53:24;18.10;66.10
22379;DHT22;11357;49.990;7.370;2022-09-01T03:55:52;18.00;66.00
22379;DHT22;11357;49.990;7.370;2022-09-01T03:58:19;18.00;66.10
22379;DHT22;11357;49.990;7.370;2022-09-01T04:00:52;18.00;66.10
22379;DHT22;11357;49.990;7.370;2022-09-01T04:03:24;18.00;66.20
22379;DHT22;11357;49.990;7.370;2022-09-01T04:05:52;18.00;66.30
22379;DHT22;11357;49.990;7.370;2022-09-01T04:08:19;18.00;66.50
22379;DHT22;11357;49.990;7.370;2022-09-01T04:10:48;17.90;66.60
22379;DHT22;11357;49.990;7.370;2022-09-01T04:13:19;17.90;66.70
22379;DHT22;11357;49.990;7.370;2022-09-01T04:15:46;17.90;66.80
22379;DHT22;11357;49.990;7.370;2022-09-01T04:18:13;17.90;66.80
22379;DHT22;11357;49.990;7.370;2022-09-01T04:20:47;17.80;66.90
22379;DHT22;11357;49.990;7.370;2022-09-01T04:23:28;17.80;67.70
22379;DHT22;11357;49.990;7.370;2022-09-01T04:25:58;17.80;67.90
22379;DHT22;11357;49.990;7.370;2022-09-01T04:28:32;17.80;67.10
22379;DHT22;11357;49.990;7.370;2022-09-01T04:31:00;17.70;67.10
22379;DHT22;11357;49.990;7.370;2022-09-01T04:33:31;17.70;67.20
22379;DHT22;11357;49.990;7.370;2022-09-01T04:36:15;17.70;67.30
22379;DHT22;11357;49.990;7.370;2022-09-01T04:38:44;17.70;67.40
22379;DHT22;11357;49.990;7.370;2022-09-01T04:41:11;17.70;67.50
22379;DHT22;11357;49.990;7.370;2022-09-01T04:43:42;17.70;67.60
22379;DHT22;11357;49.990;7.370;2022-09-01T04:46:10;17.70;67.80
22379;DHT22;11357;49.990;7.370;2022-09-01T04:48:38;17.70;67.70
22379;DHT22;11357;49.990;7.370;2022-09-01T04:51:07;17.70;67.70
22379;DHT22;11357;49.990;7.370;2022-09-01T04:53:35;17.60;67.70
22379;DHT22;11357;49.990;7.370;2022-09-01T04:56:05;17.60;67.80
22379;DHT22;11357;49.990;7.370;2022-09-01T04:58:32;17.60;68.70
22379;DHT22;11357;49.990;7.370;2022-09-01T05:00:58;17.60;68.20
22379;DHT22;11357;49.990;7.370;2022-09-01T05:03:25;17.60;68.20
22379;DHT22;11357;49.990;7.370;2022-09-01T05:05:51;17.60;68.30
22379;DHT22;11357;49.990;7.370;2022-09-01T05:08:20;17.60;68.40
22379;DHT22;11357;49.990;7.370;2022-09-01T05:10:49;17.60;68.50
22379;DHT22;11357;49.990;7.370;2022-09-01T05:13:18;17.60;68.60
22379;DHT22;11357;49.990;7.370;2022-09-01T05:15:45;17.60;68.70
22379;DHT22;11357;49.990;7.370;2022-09-01T05:18:15;17.60;68.70
22379;DHT22;11357;49.990;7.370;2022-09-01T05:20:49;17.60;68.90
22379;DHT22;11357;49.990;7.370;2022-09-01T05:23:15;17.60;69.00
22379;DHT22;11357;49.990;7.370;2022-09-01T05:25:46;17.60;69.10
22379;DHT22;11357;49.990;7.370;2022-09-01T05:28:14;17.60;69.10
22379;DHT22;11357;49.990;7.370;2022-09-01T05:30:42;17.70;69.20
22379;DHT22;11357;49.990;7.370;2022-09-01T05:33:08;17.70;69.20
22379;DHT22;11357;49.990;7.370;2022-09-01T05:35:59;17.70;69.20
22379;DHT22;11357;49.990;7.370;2022-09-01T05:38:26;17.80;69.30
22379;DHT22;11357;49.990;7.370;2022-09-01T05:41:01;17.80;69.10
22379;DHT22;11357;49.990;7.370;2022-09-01T05:43:28;17.90;69.30
22379;DHT22;11357;49.990;7.370;2022-09-01T05:45:56;17.90;69.10
22379;DHT22;11357;49.990;7.370;2022-09-01T05:48:23;18.00;69.00
22379;DHT22;11357;49.990;7.370;2022-09-01T05:50:50;18.10;68.90
22379;DHT22;11357;49.990;7.370;2022-09-01T05:53:20;18.20;68.70
22379;DHT22;11357;49.990;7.370;2022-09-01T05:55:50;18.30;68.50
22379;DHT22;11357;49.990;7.370;2022-09-01T05:58:23;18.40;68.30
22379;DHT22;11357;49.990;7.370;2022-09-01T06:00:51;18.50;68.00
22379;DHT22;11357;49.990;7.370;2022-09-01T06:03:19;18.70;67.80
22379;DHT22;11357;49.990;7.370;2022-09-01T06:05:47;18.80;67.70
22379;DHT22;11357;49.990;7.370;2022-09-01T06:08:18;18.90;67.50
22379;DHT22;11357;49.990;7.370;2022-09-01T06:10:44;19.00;67.30
22379;DHT22;11357;49.990;7.370;2022-09-01T06:13:11;19.10;67.00
22379;DHT22;11357;49.990;7.370;2022-09-01T06:15:40;19.20;66.90
22379;DHT22;11357;49.990;7.370;2022-09-01T06:18:08;19.30;66.70
22379;DHT22;11357;49.990;7.370;2022-09-01T06:20:40;19.50;66.40
22379;DHT22;11357;49.990;7.370;2022-09-01T06:23:09;19.70;66.00
22379;DHT22;11357;49.990;7.370;2022-09-01T06:25:46;19.80;65.50
22379;DHT22;11357;49.990;7.370;2022-09-01T06:28:14;20.00;65.30
22379;DHT22;11357;49.990;7.370;2022-09-01T06:30:40;20.20;64.90
22379;DHT22;11357;49.990;7.370;2022-09-01T06:33:07;20.30;64.50
22379;DHT22;11357;49.990;7.370;2022-09-01T06:35:36;20.40;64.00
22379;DHT22;11357;49.990;7.370;2022-09-01T06:38:04;20.50;63.70
22379;DHT22;11357;49.990;7.370;2022-09-01T06:40:32;20.70;63.50
22379;DHT22;11357;49.990;7.370;2022-09-01T06:42:58;20.80;63.10
22379;DHT22;11357;49.990;7.370;2022-09-01T06:45:37;20.70;62.90
22379;DHT22;11357;49.990;7.370;2022-09-01T06:48:05;20.70;62.90
22379;DHT22;11357;49.990;7.370;2022-09-01T06:50:31;20.60;63.00
22379;DHT22;11357;49.990;7.370;2022-09-01T06:52:56;20.60;63.10
22379;DHT22;11357;49.990;7.370;2022-09-01T06:55:34;20.80;63.00
22379;DHT22;11357;49.990;7.370;2022-09-01T06:58:03;20.90;63.40
22379;DHT22;11357;49.990;7.370;2022-09-01T07:00:29;21.00;62.30
22379;DHT22;11357;49.990;7.370;2022-09-01T07:02:56;21.10;62.30
22379;DHT22;11357;49.990;7.370;2022-09-01T07:05:23;21.20;61.90
22379;DHT22;11357;49.990;7.370;2022-09-01T07:07:51;21.30;61.60
22379;DHT22;11357;49.990;7.370;2022-09-01T07:10:21;21.50;61.50
22379;DHT22;11357;49.990;7.370;2022-09-01T07:12:52;21.70;61.10
22379;DHT22;11357;49.990;7.370;2022-09-01T07:15:21;22.00;60.80
22379;DHT22;11357;49.990;7.370;2022-09-01T07:17:53;22.10;59.90
22379;DHT22;11357;49.990;7.370;2022-09-01T07:20:25;22.00;59.60
22379;DHT22;11357;49.990;7.370;2022-09-01T07:22:54;21.90;59.70
22379;DHT22;11357;49.990;7.370;2022-09-01T07:25:20;21.80;59.90
22379;DHT22;11357;49.990;7.370;2022-09-01T07:27:46;21.60;60.10
22379;DHT22;11357;49.990;7.370;2022-09-01T07:30:20;21.50;60.40
22379;DHT22;11357;49.990;7.370;2022-09-01T07:32:47;21.40;60.70
22379;DHT22;11357;49.990;7.370;2022-09-01T07:35:16;21.40;60.70
22379;DHT22;11357;49.990;7.370;2022-09-01T07:37:43;21.40;60.90
22379;DHT22;11357;49.990;7.370;2022-09-01T07:40:13;21.50;60.90
22379;DHT22;11357;49.990;7.370;2022-09-01T07:42:43;21.50;60.80
22379;DHT22;11357;49.990;7.370;2022-09-01T07:45:10;21.60;60.60
22379;DHT22;11357;49.990;7.370;2022-09-01T07:47:37;21.70;60.20
22379;DHT22;11357;49.990;7.370;2022-09-01T07:50:08;21.80;60.20
22379;DHT22;11357;49.990;7.370;2022-09-01T07:52:38;21.90;60.20
22379;DHT22;11357;49.990;7.370;2022-09-01T07:57:37;22.20;59.80
22379;DHT22;11357;49.990;7.370;2022-09-01T08:00:04;22.30;59.50
22379;DHT22;11357;49.990;7.370;2022-09-01T08:02:30;22.50;59.20
22379;DHT22;11357;49.990;7.370;2022-09-01T08:04:57;22.70;58.90
22379;DHT22;11357;49.990;7.370;2022-09-01T08:07:23;22.90;58.70
22379;DHT22;11357;49.990;7.370;2022-09-01T08:09:49;23.00;58.50
22379;DHT22;11357;49.990;7.370;2022-09-01T08:12:15;23.20;58.20
22379;DHT22;11357;49.990;7.370;2022-09-01T08:14:41;23.30;58.00
22379;DHT22;11357;49.990;7.370;2022-09-01T08:17:07;23.20;57.70
22379;DHT22;11357;49.990;7.370;2022-09-01T08:19:32;23.30;57.70
22379;DHT22;11357;49.990;7.370;2022-09-01T08:21:58;23.40;57.70
22379;DHT22;11357;49.990;7.370;2022-09-01T08:24:25;23.80;57.20
22379;DHT22;11357;49.990;7.370;2022-09-01T08:26:51;24.10;56.50
22379;DHT22;11357;49.990;7.370;2022-09-01T08:29:17;24.50;55.70
22379;DHT22;11357;49.990;7.370;2022-09-01T08:31:42;24.50;55.20
22379;DHT22;11357;49.990;7.370;2022-09-01T08:34:10;24.70;55.00
22379;DHT22;11357;49.990;7.370;2022-09-01T08:36:37;25.10;54.50
22379;DHT22;11357;49.990;7.370;2022-09-01T08:39:02;25.70;53.80
22379;DHT22;11357;49.990;7.370;2022-09-01T08:41:37;26.40;52.90
22379;DHT22;11357;49.990;7.370;2022-09-01T08:46:37;26.90;50.80
22379;DHT22;11357;49.990;7.370;2022-09-01T08:49:09;26.80;50.40
22379;DHT22;11357;49.990;7.370;2022-09-01T08:51:49;26.80;50.60
22379;DHT22;11357;49.990;7.370;2022-09-01T08:54:37;27.00;50.60
22379;DHT22;11357;49.990;7.370;2022-09-01T08:57:10;27.10;49.70
22379;DHT22;11357;49.990;7.370;2022-09-01T08:59:38;27.00;49.90
22379;DHT22;11357;49.990;7.370;2022-09-01T09:04:49;26.80;49.30
22379;DHT22;11357;49.990;7.370;2022-09-01T09:10:20;26.40;49.90
22379;DHT22;11357;49.990;7.370;2022-09-01T09:12:53;26.40;50.30
22379;DHT22;11357;49.990;7.370;2022-09-01T09:16:17;26.20;50.10
22379;DHT22;11357;49.990;7.370;2022-09-01T09:18:42;26.00;50.40
22379;DHT22;11357;49.990;7.370;2022-09-01T09:21:17;26.00;50.70
22379;DHT22;11357;49.990;7.370;2022-09-01T09:23:52;25.80;50.80
22379;DHT22;11357;49.990;7.370;2022-09-01T09:26:19;25.70;51.10
22379;DHT22;11357;49.990;7.370;2022-09-01T09:28:47;25.70;51.10
22379;DHT22;11357;49.990;7.370;2022-09-01T09:31:34;25.50;51.30
22379;DHT22;11357;49.990;7.370;2022-09-01T09:34:01;25.50;51.70
22379;DHT22;11357;49.990;7.370;2022-09-01T09:36:33;25.50;52.10
22379;DHT22;11357;49.990;7.370;2022-09-01T09:39:09;25.60;51.70
22379;DHT22;11357;49.990;7.370;2022-09-01T09:41:37;25.60;51.70
22379;DHT22;11357;49.990;7.370;2022-09-01T09:44:20;25.60;51.60
22379;DHT22;11357;49.990;7.370;2022-09-01T09:46:49;25.60;51.70
22379;DHT22;11357;49.990;7.370;2022-09-01T09:49:29;25.80;51.60
22379;DHT22;11357;49.990;7.370;2022-09-01T09:52:17;26.10;51.30
22379;DHT22;11357;49.990;7.370;2022-09-01T09:55:04;26.70;50.60
22379;DHT22;11357;49.990;7.370;2022-09-01T09:57:31;27.40;49.40
22379;DHT22;11357;49.990;7.370;2022-09-01T10:03:01;28.60;47.70
22379;DHT22;11357;49.990;7.370;2022-09-01T10:05:40;29.30;46.30
22379;DHT22;11357;49.990;7.370;2022-09-01T10:08:13;29.70;45.30
22379;DHT22;11357;49.990;7.370;2022-09-01T10:10:43;30.10;44.50
22379;DHT22;11357;49.990;7.370;2022-09-01T10:13:23;30.20;44.10
22379;DHT22;11357;49.990;7.370;2022-09-01T10:15:57;30.30;43.40
22379;DHT22;11357;49.990;7.370;2022-09-01T10:18:28;30.00;43.80
22379;DHT22;11357;49.990;7.370;2022-09-01T10:21:11;29.60;43.80
22379;DHT22;11357;49.990;7.370;2022-09-01T10:23:38;29.20;44.30
22379;DHT22;11357;49.990;7.370;2022-09-01T10:26:14;29.00;44.50
22379;DHT22;11357;49.990;7.370;2022-09-01T10:28:53;28.40;44.80
22379;DHT22;11357;49.990;7.370;2022-09-01T10:31:21;28.50;45.70
22379;DHT22;11357;49.990;7.370;2022-09-01T10:33:48;29.10;45.20
22379;DHT22;11357;49.990;7.370;2022-09-01T10:36:15;29.40;44.00
22379;DHT22;11357;49.990;7.370;2022-09-01T10:38:41;29.40;43.40
22379;DHT22;11357;49.990;7.370;2022-09-01T10:41:07;29.60;43.40
22379;DHT22;11357;49.990;7.370;2022-09-01T10:48:45;31.10;40.90
22379;DHT22;11357;49.990;7.370;2022-09-01T10:53:47;31.20;40.20
22379;DHT22;11357;49.990;7.370;2022-09-01T11:09:43;30.30;40.20
22379;DHT22;11357;49.990;7.370;2022-09-01T11:14:54;30.10;40.90
22379;DHT22;11357;49.990;7.370;2022-09-01T11:19:54;30.50;40.30
22379;DHT22;11357;49.990;7.370;2022-09-01T11:22:36;30.60;40.00
22379;DHT22;11357;49.990;7.370;2022-09-01T11:31:15;31.10;38.30
22379;DHT22;11357;49.990;7.370;2022-09-01T11:41:20;31.30;38.20
22379;DHT22;11357;49.990;7.370;2022-09-01T11:43:49;31.40;38.40
22379;DHT22;11357;49.990;7.370;2022-09-01T11:46:24;31.30;38.50
22379;DHT22;11357;49.990;7.370;2022-09-01T11:48:50;30.80;38.90
22379;DHT22;11357;49.990;7.370;2022-09-01T11:51:16;30.40;39.50
22379;DHT22;11357;49.990;7.370;2022-09-01T11:53:42;30.50;39.60
22379;DHT22;11357;49.990;7.370;2022-09-01T11:56:17;30.40;39.70
22379;DHT22;11357;49.990;7.370;2022-09-01T11:58:44;30.00;39.90
22379;DHT22;11357;49.990;7.370;2022-09-01T12:01:14;29.70;39.60
22379;DHT22;11357;49.990;7.370;2022-09-01T12:03:40;29.30;40.00
22379;DHT22;11357;49.990;7.370;2022-09-01T12:06:10;29.30;40.50
22379;DHT22;11357;49.990;7.370;2022-09-01T12:08:39;29.50;40.30
22379;DHT22;11357;49.990;7.370;2022-09-01T12:11:09;29.40;40.00
22379;DHT22;11357;49.990;7.370;2022-09-01T12:13:37;29.80;39.80
22379;DHT22;11357;49.990;7.370;2022-09-01T12:16:06;29.90;39.60
22379;DHT22;11357;49.990;7.370;2022-09-01T12:18:42;30.20;39.30
22379;DHT22;11357;49.990;7.370;2022-09-01T12:22:00;30.30;38.80
22379;DHT22;11357;49.990;7.370;2022-09-01T12:24:22;30.10;39.10
22379;DHT22;11357;49.990;7.370;2022-09-01T12:26:53;30.00;39.50
22379;DHT22;11357;49.990;7.370;2022-09-01T12:29:20;29.90;39.30
22379;DHT22;11357;49.990;7.370;2022-09-01T12:31:49;30.00;39.00
22379;DHT22;11357;49.990;7.370;2022-09-01T12:39:39;29.20;39.70
22379;DHT22;11357;49.990;7.370;2022-09-01T12:44:47;28.50;40.70
22379;DHT22;11357;49.990;7.370;2022-09-01T12:50:06;28.30;41.60
22379;DHT22;11357;49.990;7.370;2022-09-01T12:52:34;28.20;41.70
22379;DHT22;11357;49.990;7.370;2022-09-01T12:57:45;28.10;41.50
22379;DHT22;11357;49.990;7.370;2022-09-01T13:00:21;28.00;41.50
22379;DHT22;11357;49.990;7.370;2022-09-01T13:03:02;27.90;41.70
22379;DHT22;11357;49.990;7.370;2022-09-01T13:05:35;27.80;42.30
22379;DHT22;11357;49.990;7.370;2022-09-01T13:08:07;27.90;41.90
22379;DHT22;11357;49.990;7.370;2022-09-01T13:10:43;27.80;42.20
22379;DHT22;11357;49.990;7.370;2022-09-01T13:13:10;27.80;42.20
22379;DHT22;11357;49.990;7.370;2022-09-01T13:15:39;27.80;41.90
22379;DHT22;11357;49.990;7.370;2022-09-01T13:18:05;27.60;42.10
22379;DHT22;11357;49.990;7.370;2022-09-01T13:20:30;27.60;42.30
22379;DHT22;11357;49.990;7.370;2022-09-01T13:22:56;27.60;42.20
22379;DHT22;11357;49.990;7.370;2022-09-01T13:25:22;27.50;42.10
22379;DHT22;11357;49.990;7.370;2022-09-01T13:27:50;27.50;42.30
22379;DHT22;11357;49.990;7.370;2022-09-01T13:30:22;27.50;42.10
22379;DHT22;11357;49.990;7.370;2022-09-01T13:32:49;27.40;42.60
22379;DHT22;11357;49.990;7.370;2022-09-01T13:35:18;27.50;42.50
22379;DHT22;11357;49.990;7.370;2022-09-01T13:37:45;27.50;42.20
22379;DHT22;11357;49.990;7.370;2022-09-01T13:40:13;27.60;42.20
22379;DHT22;11357;49.990;7.370;2022-09-01T13:42:45;27.60;42.00
22379;DHT22;11357;49.990;7.370;2022-09-01T13:45:12;27.70;41.90
22379;DHT22;11357;49.990;7.370;2022-09-01T13:47:41;28.00;41.90
22379;DHT22;11357;49.990;7.370;2022-09-01T13:50:09;28.30;41.60
22379;DHT22;11357;49.990;7.370;2022-09-01T13:52:40;28.20;41.20
22379;DHT22;11357;49.990;7.370;2022-09-01T13:55:09;28.10;41.20
22379;DHT22;11357;49.990;7.370;2022-09-01T13:57:35;28.10;41.10
22379;DHT22;11357;49.990;7.370;2022-09-01T14:00:03;28.30;41.00
22379;DHT22;11357;49.990;7.370;2022-09-01T14:02:29;28.70;40.70
22379;DHT22;11357;49.990;7.370;2022-09-01T14:04:54;29.00;40.00
22379;DHT22;11357;49.990;7.370;2022-09-01T14:07:20;28.80;39.80
22379;DHT22;11357;49.990;7.370;2022-09-01T14:09:46;28.70;40.10
22379;DHT22;11357;49.990;7.370;2022-09-01T14:12:12;28.50;40.50
22379;DHT22;11357;49.990;7.370;2022-09-01T14:14:38;28.40;41.20
22379;DHT22;11357;49.990;7.370;2022-09-01T14:17:03;28.20;40.70
22379;DHT22;11357;49.990;7.370;2022-09-01T14:19:29;28.10;40.90
22379;DHT22;11357;49.990;7.370;2022-09-01T14:21:55;28.00;41.10
22379;DHT22;11357;49.990;7.370;2022-09-01T14:24:21;28.20;41.70
22379;DHT22;11357;49.990;7.370;2022-09-01T14:26:47;28.20;40.90
22379;DHT22;11357;49.990;7.370;2022-09-01T14:29:15;28.10;41.30
22379;DHT22;11357;49.990;7.370;2022-09-01T14:31:41;28.20;41.20
22379;DHT22;11357;49.990;7.370;2022-09-01T14:34:08;28.10;41.10
22379;DHT22;11357;49.990;7.370;2022-09-01T14:36:36;28.10;41.20
22379;DHT22;11357;49.990;7.370;2022-09-01T14:39:03;28.10;41.20
22379;DHT22;11357;49.990;7.370;2022-09-01T14:41:30;28.10;41.20
22379;DHT22;11357;49.990;7.370;2022-09-01T14:43:56;28.20;41.10
22379;DHT22;11357;49.990;7.370;2022-09-01T14:46:29;28.40;40.70
22379;DHT22;11357;49.990;7.370;2022-09-01T14:48:55;28.50;40.30
22379;DHT22;11357;49.990;7.370;2022-09-01T14:51:27;28.70;40.10
22379;DHT22;11357;49.990;7.370;2022-09-01T14:53:54;28.80;39.80
22379;DHT22;11357;49.990;7.370;2022-09-01T14:56:21;28.80;39.80
22379;DHT22;11357;49.990;7.370;2022-09-01T14:58:48;28.70;39.80
22379;DHT22;11357;49.990;7.370;2022-09-01T15:01:16;28.60;39.80
22379;DHT22;11357;49.990;7.370;2022-09-01T15:03:43;28.40;39.50
22379;DHT22;11357;49.990;7.370;2022-09-01T15:06:11;28.20;39.60
22379;DHT22;11357;49.990;7.370;2022-09-01T15:08:38;28.00;39.70
22379;DHT22;11357;49.990;7.370;2022-09-01T15:11:11;27.90;39.90
22379;DHT22;11357;49.990;7.370;2022-09-01T15:13:38;27.80;40.20
22379;DHT22;11357;49.990;7.370;2022-09-01T15:16:04;27.80;40.30
22379;DHT22;11357;49.990;7.370;2022-09-01T15:18:31;27.80;40.50
22379;DHT22;11357;49.990;7.370;2022-09-01T15:20:56;27.80;40.50
22379;DHT22;11357;49.990;7.370;2022-09-01T15:23:24;27.80;40.70
22379;DHT22;11357;49.990;7.370;2022-09-01T15:25:52;27.80;41.00
22379;DHT22;11357;49.990;7.370;2022-09-01T15:28:18;27.80;41.30
22379;DHT22;11357;49.990;7.370;2022-09-01T15:30:44;27.80;41.40
22379;DHT22;11357;49.990;7.370;2022-09-01T15:33:11;27.70;41.20
22379;DHT22;11357;49.990;7.370;2022-09-01T15:35:37;27.60;41.30
22379;DHT22;11357;49.990;7.370;2022-09-01T15:38:04;27.50;41.50
22379;DHT22;11357;49.990;7.370;2022-09-01T15:40:31;27.40;41.70
22379;DHT22;11357;49.990;7.370;2022-09-01T15:42:57;27.40;41.90
22379;DHT22;11357;49.990;7.370;2022-09-01T15:45:26;27.30;42.00
22379;DHT22;11357;49.990;7.370;2022-09-01T15:47:52;27.30;41.90
22379;DHT22;11357;49.990;7.370;2022-09-01T15:50:21;27.30;42.00
22379;DHT22;11357;49.990;7.370;2022-09-01T15:52:51;27.30;41.90
22379;DHT22;11357;49.990;7.370;2022-09-01T15:55:29;27.40;41.80
22379;DHT22;11357;49.990;7.370;2022-09-01T15:57:55;27.40;41.90
22379;DHT22;11357;49.990;7.370;2022-09-01T16:00:24;27.40;41.80
22379;DHT22;11357;49.990;7.370;2022-09-01T16:02:49;27.40;41.80
22379;DHT22;11357;49.990;7.370;2022-09-01T16:05:15;27.40;41.80
22379;DHT22;11357;49.990;7.370;2022-09-01T16:07:42;27.40;41.70
22379;DHT22;11357;49.990;7.370;2022-09-01T16:10:09;27.30;41.60
22379;DHT22;11357;49.990;7.370;2022-09-01T16:12:40;27.20;41.50
22379;DHT22;11357;49.990;7.370;2022-09-01T16:15:12;27.20;41.60
22379;DHT22;11357;49.990;7.370;2022-09-01T16:24:02;27.20;41.90
22379;DHT22;11357;49.990;7.370;2022-09-01T16:26:21;27.20;41.80
22379;DHT22;11357;49.990;7.370;2022-09-01T16:28:53;27.20;41.80
22379;DHT22;11357;49.990;7.370;2022-09-01T16:31:29;27.30;41.80
22379;DHT22;11357;49.990;7.370;2022-09-01T16:33:57;27.20;41.70
22379;DHT22;11357;49.990;7.370;2022-09-01T16:39:39;27.00;41.40
22379;DHT22;11357;49.990;7.370;2022-09-01T16:44:56;26.90;41.80
22379;DHT22;11357;49.990;7.370;2022-09-01T16:47:56;26.80;41.60
22379;DHT22;11357;49.990;7.370;2022-09-01T16:58:24;26.50;41.90
22379;DHT22;11357;49.990;7.370;2022-09-01T17:06:58;26.30;42.20
22379;DHT22;11357;49.990;7.370;2022-09-01T17:09:34;26.20;42.20
22379;DHT22;11357;49.990;7.370;2022-09-01T17:14:49;26.20;42.10
22379;DHT22;11357;49.990;7.370;2022-09-01T17:17:26;26.10;42.10
22379;DHT22;11357;49.990;7.370;2022-09-01T17:19:55;26.00;42.20
22379;DHT22;11357;49.990;7.370;2022-09-01T17:22:21;26.00;42.20
22379;DHT22;11357;49.990;7.370;2022-09-01T17:25:00;26.00;42.30